Samus Swan — 9HA2333 — position and weather

sailwx.info

Track history (hours):
 
Tides and Currents Weather Stations Pressure Air Temp Water Temp Dewpoint Dewpoint Depression Visibility Wind Speed Wind Dir Waves Ship Positions

Samus Swan

Last reported at 2014-Sep-14 21:04 UTC. Time now 2014-Sep-17 09:34 UTC.
Position N 36°52' E 023°35'.

Length 106 m; draft 7.2 m.

Type: Ship (hazmat cat B). MMSI: 248363000.

Date/timePositionNaut miles runAvg speedWind from/ knotsBaromVisibWave heightAir tempDewpointWater temp
2014-Sep-14 21:04N 36°52' E 023°35'11310.4
2014-Sep-14 10:10N 38°27' E 024°54'813.1
2014-Sep-14 09:33N 38°34' E 024°58'1510.5
2014-Sep-14 08:07N 38°47' E 025°06'812.9
2014-Sep-14 07:30N 38°54' E 025°11'19712.1
2014-Sep-13 15:11N 40°53' E 028°36'812.6
2014-Sep-13 14:33N 40°54' E 028°47'8 7.7
2014-Sep-13 13:33N 40°57' E 028°56'  
2014-Sep-09 05:24N 46°05' E 031°14'1214.0
2014-Sep-09 04:30N 45°56' E 031°26'1414.0
2014-Sep-09 03:31N 45°45' E 031°39'1413.9
2014-Sep-09 02:28N 45°35' E 031°54'6913.8
2014-Sep-08 21:27N 44°42' E 032°58'1313.6
2014-Sep-08 20:30N 44°33' E 033°10'4212.5
2014-Sep-08 17:08N 44°18' E 034°04'914.7
2014-Sep-08 16:33N 44°18' E 034°16'1514.7
2014-Sep-08 15:33N 44°17' E 034°37'1414.2
2014-Sep-08 14:33N 44°17' E 034°57'2014.0
2014-Sep-08 13:06N 44°24' E 035°24'3614.2
2014-Sep-08 10:34N 44°41' E 036°08'13 6.4
2014-Sep-08 08:33N 44°46' E 036°25'8 7.6
2014-Sep-08 07:33N 44°42' E 036°16'1913.8
2014-Sep-08 06:10N 44°32' E 035°53'813.5
2014-Sep-08 05:33N 44°27' E 035°43'1413.6
2014-Sep-08 04:33N 44°20' E 035°27'1414.0
2014-Sep-08 03:33N 44°12' E 035°11'  
2014-Sep-05 18:12N 40°57' E 028°52'0 0.0
2014-Sep-05 04:14N 40°57' E 028°52'1 1.1
2014-Sep-05 03:30N 40°56' E 028°53'7 6.5
2014-Sep-05 02:29N 40°53' E 029°00'1212.6
2014-Sep-05 01:33N 40°44' E 029°11'6 5.4
2014-Sep-05 00:32N 40°43' E 029°18'1111.2
2014-Sep-04 23:33N 40°47' E 029°04'4 4.3
2014-Sep-04 22:33N 40°43' E 029°01'1010.1
2014-Sep-04 21:31N 40°43' E 028°47'  
Track history (hours):
 
Tides and Currents Weather Stations Pressure Air Temp Water Temp Dewpoint Dewpoint Depression Visibility Wind Speed Wind Dir Waves Ship Positions

Samus Swan

Last reported at 2014-Sep-14 21:04 UTC. Time now 2014-Sep-17 09:34 UTC.
Position N 36°52' E 023°35'.

Length 106 m; draft 7.2 m.

Type: Ship (hazmat cat B). MMSI: 248363000.

Date/timePositionNaut miles runAvg speedWind from/ knotsBaromVisibWave heightAir tempDewpointWater temp
2014-Sep-14 21:04N 36°52' E 023°35'11310.4
2014-Sep-14 10:10N 38°27' E 024°54'813.1
2014-Sep-14 09:33N 38°34' E 024°58'1510.5
2014-Sep-14 08:07N 38°47' E 025°06'812.9
2014-Sep-14 07:30N 38°54' E 025°11'19712.1
2014-Sep-13 15:11N 40°53' E 028°36'812.6
2014-Sep-13 14:33N 40°54' E 028°47'8 7.7
2014-Sep-13 13:33N 40°57' E 028°56'  
2014-Sep-09 05:24N 46°05' E 031°14'1214.0
2014-Sep-09 04:30N 45°56' E 031°26'1414.0
2014-Sep-09 03:31N 45°45' E 031°39'1413.9
2014-Sep-09 02:28N 45°35' E 031°54'6913.8
2014-Sep-08 21:27N 44°42' E 032°58'1313.6
2014-Sep-08 20:30N 44°33' E 033°10'4212.5
2014-Sep-08 17:08N 44°18' E 034°04'914.7
2014-Sep-08 16:33N 44°18' E 034°16'1514.7
2014-Sep-08 15:33N 44°17' E 034°37'1414.2
2014-Sep-08 14:33N 44°17' E 034°57'2014.0
2014-Sep-08 13:06N 44°24' E 035°24'3614.2
2014-Sep-08 10:34N 44°41' E 036°08'13 6.4
2014-Sep-08 08:33N 44°46' E 036°25'8 7.6
2014-Sep-08 07:33N 44°42' E 036°16'1913.8
2014-Sep-08 06:10N 44°32' E 035°53'813.5
2014-Sep-08 05:33N 44°27' E 035°43'1413.6
2014-Sep-08 04:33N 44°20' E 035°27'1414.0
2014-Sep-08 03:33N 44°12' E 035°11'  
2014-Sep-05 18:12N 40°57' E 028°52'0 0.0
2014-Sep-05 04:14N 40°57' E 028°52'1 1.1
2014-Sep-05 03:30N 40°56' E 028°53'7 6.5
2014-Sep-05 02:29N 40°53' E 029°00'1212.6
2014-Sep-05 01:33N 40°44' E 029°11'6 5.4
2014-Sep-05 00:32N 40°43' E 029°18'1111.2
2014-Sep-04 23:33N 40°47' E 029°04'4 4.3
2014-Sep-04 22:33N 40°43' E 029°01'1010.1
2014-Sep-04 21:31N 40°43' E 028°47'  

Dump ship's entire track history